Huvudsida
METAR-TAF:

METAR-TAF

Flygplatser :

Gällivare Lapland Airport

Gällivare, Sverige

latitud: 67-09N, longitud: 020-39E, höjd: 359 m

Aktuellt väderrapport

Denna rapport gjordes för 33 minuter sedan, klockan 22:20 UTC
Vind 3 kt från väst/nordväst
Temperatur -26°C
Fuktighet 76%
Tryck 1017 hPa
Sikt 10 km eller mer

METAR: ESNG 232220Z AUTO 30003KT 9999 NCD M26/M29 Q1017

Tid: 23:53 (22:53 UTC)

Väderprognos

Denna rapport gjordes för 5 timmar och 23 minuter sedan, klockan 17:30 UTC
Prognos gäller från 23 kl. 18 UTC till 23 kl. 22 UTC
Vind 5 kt från nordväst
Sikt: 8000 m
Spridda moln på en höjd av 500 ft
Mulet på en höjd av 1500 ft
lätt snö
Sannolikhet 40%
från 23 kl. 18 UTC till 23 kl. 20 UTC
Sikt: 4000 m
Brutna moln på en höjd av 400 ft

TAF: ESNG 231730Z 2318/2322 31005KT 8000 -SN SCT005 OVC015 PROB40 2318/2320 4000 BKN004

Aktuella väderrapporter och prognoser från 4000 flygplatser (METAR- och TAF-rapporter).

De tillgängliga stationerna syns som gula och röda prickar på kartan.

För musen över prickarna för att se namnen på stationerna.

Klicka sedan för att få väderrapporter och prognoser.

För att ändra kartan: Klicka på de gröna knapparna med ett svart kors på för att zooma in; den gröna knappen med ett streck på för att zooma ut; eller på de gröna pilarna för angränsande kartor.


METAR-TAF: